Cse Wisdom Express — 3FVD8 — position and weather

sailwx.info

Track history (hours):
 
Tides and Currents Weather Stations Pressure Air Temp Water Temp Dewpoint Dewpoint Depression Visibility Wind Speed Wind Dir Waves Ship Positions

Cse Wisdom Express

Last reported at 2018-Feb-22 10:55 UTC. Time now 2018-Feb-22 11:13 UTC.
Position N 25°02' E 120°56'.

Length 122 m; draft 9.1 m.

Type: Cargo ship. MMSI: 372522000.

Date/timePositionNaut miles runAvg speedWind from/ knotsBaromVisibWave heightAir tempDewpointWater temp
2018-Feb-22 10:55N 25°02' E 120°56'4 9.0
2018-Feb-22 10:29N 24°59' E 120°54'4 9.2
2018-Feb-22 10:00N 24°55' E 120°51'94 6.9
2018-Feb-21 20:28N 23°35' E 119°58'6 7.4
2018-Feb-21 19:36N 23°29' E 119°57'4 8.2
2018-Feb-21 19:10N 23°25' E 119°57'2 8.9
2018-Feb-21 18:59N 23°24' E 119°57'5 9.6
2018-Feb-21 18:30N 23°19' E 119°57'810.9
2018-Feb-21 17:44N 23°11' E 119°56'311.4
2018-Feb-21 17:30N 23°08' E 119°56'611.4
2018-Feb-21 17:00N 23°02' E 119°57'612.1
2018-Feb-21 16:30N 22°57' E 119°60'612.2
2018-Feb-21 16:00N 22°51' E 120°02'612.3
2018-Feb-21 15:30N 22°45' E 120°05'612.0
2018-Feb-21 15:00N 22°40' E 120°07'611.5
2018-Feb-21 14:30N 22°35' E 120°10'5 9.8
2018-Feb-21 14:00N 22°33' E 120°15'5 9.3
2018-Feb-21 13:30N 22°33' E 120°20'1 1.7
2018-Feb-21 12:58N 22°33' E 120°21'0 0.0
2018-Feb-21 12:28N 22°33' E 120°21'0 0.1
2018-Feb-21 11:52N 22°33' E 120°21'0 0.1
2018-Feb-21 11:25N 22°33' E 120°21'0 0.1
2018-Feb-21 10:58N 22°33' E 120°21'0 0.0
2018-Feb-21 10:28N 22°33' E 120°21'0 0.0
2018-Feb-21 09:58N 22°33' E 120°21'0 0.1
2018-Feb-21 09:25N 22°33' E 120°21'0 0.0
2018-Feb-21 08:58N 22°33' E 120°21'0 0.0
2018-Feb-21 08:25N 22°33' E 120°21'0 0.0
2018-Feb-21 07:58N 22°33' E 120°21'0 0.1
2018-Feb-21 07:28N 22°33' E 120°21'0 0.0
2018-Feb-21 06:55N 22°33' E 120°21'0 0.1
2018-Feb-21 06:28N 22°33' E 120°21'0 0.0
2018-Feb-21 05:58N 22°33' E 120°21'0 0.0
2018-Feb-21 05:22N 22°33' E 120°21'0 0.0
2018-Feb-21 04:58N 22°33' E 120°21'0 0.0
2018-Feb-21 04:28N 22°33' E 120°21'0 0.0
2018-Feb-21 03:58N 22°33' E 120°21'0 0.0
2018-Feb-21 03:25N 22°33' E 120°21'0 0.1
2018-Feb-21 02:58N 22°33' E 120°21'0 0.1
2018-Feb-21 02:25N 22°33' E 120°21'0 0.1
2018-Feb-21 01:58N 22°33' E 120°21'0 0.1
2018-Feb-21 01:28N 22°33' E 120°21'0 0.0
2018-Feb-21 00:58N 22°33' E 120°21'0 0.0
2018-Feb-21 00:28N 22°33' E 120°21'0 0.1
2018-Feb-20 23:58N 22°33' E 120°21'0 0.1
2018-Feb-20 23:28N 22°33' E 120°21'0 0.0
2018-Feb-20 22:58N 22°33' E 120°21'0 0.0
2018-Feb-20 22:28N 22°33' E 120°21'0 0.0
2018-Feb-20 21:52N 22°33' E 120°21'0 0.0
2018-Feb-20 21:25N 22°33' E 120°21'0 0.0
2018-Feb-20 20:58N 22°33' E 120°21'0 0.1
2018-Feb-20 20:25N 22°33' E 120°21'0 0.1
2018-Feb-20 19:58N 22°33' E 120°21'0 0.0
2018-Feb-20 19:22N 22°33' E 120°21'0 0.1
2018-Feb-20 18:55N 22°33' E 120°21'0 0.1
2018-Feb-20 18:28N 22°33' E 120°21'0 0.0
2018-Feb-20 17:58N 22°33' E 120°21'0 0.0
2018-Feb-20 17:28N 22°33' E 120°21'0 0.0
2018-Feb-20 16:58N 22°33' E 120°21'0 0.0
2018-Feb-20 16:28N 22°33' E 120°21'0 0.0
2018-Feb-20 15:55N 22°33' E 120°21'0 0.0
2018-Feb-20 15:28N 22°33' E 120°21'0 0.1
2018-Feb-20 14:58N 22°33' E 120°21'0 0.1
2018-Feb-20 14:28N 22°33' E 120°21'0 0.0
2018-Feb-20 13:58N 22°33' E 120°21'0 0.0
2018-Feb-20 13:28N 22°33' E 120°21'0 0.0
2018-Feb-20 12:58N 22°33' E 120°21'0 0.0
2018-Feb-20 12:25N 22°33' E 120°21'0 0.1
2018-Feb-20 11:49N 22°33' E 120°21'0 0.2
2018-Feb-20 11:28N 22°33' E 120°21'0 0.1
2018-Feb-20 10:58N 22°33' E 120°21'0 0.1
2018-Feb-20 10:25N 22°33' E 120°21'0 0.0
2018-Feb-20 09:58N 22°33' E 120°21'0 0.0
2018-Feb-20 09:28N 22°33' E 120°21'0 0.0
2018-Feb-20 08:58N 22°33' E 120°21'0 0.0
2018-Feb-20 08:28N 22°33' E 120°21'0 0.0
2018-Feb-20 07:58N 22°33' E 120°21'0 0.0
2018-Feb-20 07:28N 22°33' E 120°21'0 0.0
2018-Feb-20 06:58N 22°33' E 120°21'0 0.0
2018-Feb-20 06:28N 22°33' E 120°21'0 0.0
2018-Feb-20 05:58N 22°33' E 120°21'0 0.0
2018-Feb-20 05:28N 22°33' E 120°21'0 0.0
2018-Feb-20 04:58N 22°33' E 120°21'0 0.0
2018-Feb-20 04:28N 22°33' E 120°21'0 0.0
2018-Feb-20 03:58N 22°33' E 120°21'0 0.0
2018-Feb-20 03:28N 22°33' E 120°21'0 0.0
2018-Feb-20 02:58N 22°33' E 120°21'0 0.0
2018-Feb-20 02:28N 22°33' E 120°21'0 0.0
2018-Feb-20 01:58N 22°33' E 120°21'0 0.0
2018-Feb-20 01:28N 22°33' E 120°21'0 0.1
2018-Feb-20 01:01N 22°33' E 120°21'1 1.8
2018-Feb-20 00:31N 22°33' E 120°20'4 8.2
2018-Feb-20 00:00N 22°32' E 120°15'3 6.8
2018-Feb-19 23:31N 22°31' E 120°12'4 8.4
2018-Feb-19 23:00N 22°35' E 120°10'611.8
2018-Feb-19 22:30N 22°41' E 120°08'611.9
2018-Feb-19 22:00N 22°46' E 120°05'612.2
2018-Feb-19 21:30N 22°52' E 120°02'613.0
2018-Feb-19 21:00N 22°58' E 119°60'714.0
2018-Feb-19 20:29N 23°04' E 119°56'814.1
2018-Feb-19 19:57N 23°12' E 119°56'713.8
2018-Feb-19 19:26N 23°19' E 119°57'613.3
2018-Feb-19 18:59N 23°25' E 119°57'712.9
2018-Feb-19 18:28N 23°32' E 119°57'612.2
2018-Feb-19 18:00N 23°37' E 119°58'5010.9
2018-Feb-19 13:27N 24°18' E 120°29'5 0.2
2018-Feb-18 16:17N 24°14' E 120°29'  
2018-Feb-14 10:10N 24°14' E 120°29'1 5.4
2018-Feb-14 10:00N 24°14' E 120°29'3 6.2
2018-Feb-14 09:30N 24°18' E 120°30'2 4.0
2018-Feb-14 08:59N 24°17' E 120°28'612.3
2018-Feb-14 08:30N 24°14' E 120°22'714.4
2018-Feb-14 08:00N 24°11' E 120°15'715.0
2018-Feb-14 07:30N 24°07' E 120°08'714.8
2018-Feb-14 07:00N 24°04' E 120°00'715.0
2018-Feb-14 06:30N 24°00' E 119°53'714.6
2018-Feb-14 06:00N 23°57' E 119°46'714.7
2018-Feb-14 05:30N 23°54' E 119°39'714.1
2018-Feb-14 05:00N 23°50' E 119°32'714.3
2018-Feb-14 04:30N 23°47' E 119°25'714.9
2018-Feb-14 04:00N 23°44' E 119°18'814.8
2018-Feb-14 03:30N 23°41' E 119°10'815.0
2018-Feb-14 03:00N 23°37' E 119°03'715.1
2018-Feb-14 02:30N 23°34' E 118°56'714.9
2018-Feb-14 02:00N 23°31' E 118°48'815.2
2018-Feb-14 01:30N 23°28' E 118°41'815.0
2018-Feb-14 01:00N 23°26' E 118°33'1015.4
2018-Feb-14 00:21N 23°22' E 118°23'815.3
2018-Feb-13 23:48N 23°20' E 118°14'514.8
2018-Feb-13 23:26N 23°18' E 118°08'614.4
2018-Feb-13 23:00N 23°16' E 118°02'714.2
2018-Feb-13 22:30N 23°13' E 117°55'1013.7
2018-Feb-13 21:48N 23°10' E 117°45'  
Track history (hours):
 
Tides and Currents Weather Stations Pressure Air Temp Water Temp Dewpoint Dewpoint Depression Visibility Wind Speed Wind Dir Waves Ship Positions

Cse Wisdom Express

Last reported at 2018-Feb-22 10:55 UTC. Time now 2018-Feb-22 11:13 UTC.
Position N 25°02' E 120°56'.

Length 122 m; draft 9.1 m.

Type: Cargo ship. MMSI: 372522000.

Date/timePositionNaut miles runAvg speedWind from/ knotsBaromVisibWave heightAir tempDewpointWater temp
2018-Feb-22 10:55N 25°02' E 120°56'4 9.0
2018-Feb-22 10:29N 24°59' E 120°54'4 9.2
2018-Feb-22 10:00N 24°55' E 120°51'94 6.9
2018-Feb-21 20:28N 23°35' E 119°58'6 7.4
2018-Feb-21 19:36N 23°29' E 119°57'4 8.2
2018-Feb-21 19:10N 23°25' E 119°57'2 8.9
2018-Feb-21 18:59N 23°24' E 119°57'5 9.6
2018-Feb-21 18:30N 23°19' E 119°57'810.9
2018-Feb-21 17:44N 23°11' E 119°56'311.4
2018-Feb-21 17:30N 23°08' E 119°56'611.4
2018-Feb-21 17:00N 23°02' E 119°57'612.1
2018-Feb-21 16:30N 22°57' E 119°60'612.2
2018-Feb-21 16:00N 22°51' E 120°02'612.3
2018-Feb-21 15:30N 22°45' E 120°05'612.0
2018-Feb-21 15:00N 22°40' E 120°07'611.5
2018-Feb-21 14:30N 22°35' E 120°10'5 9.8
2018-Feb-21 14:00N 22°33' E 120°15'5 9.3
2018-Feb-21 13:30N 22°33' E 120°20'1 1.7
2018-Feb-21 12:58N 22°33' E 120°21'0 0.0
2018-Feb-21 12:28N 22°33' E 120°21'0 0.1
2018-Feb-21 11:52N 22°33' E 120°21'0 0.1
2018-Feb-21 11:25N 22°33' E 120°21'0 0.1
2018-Feb-21 10:58N 22°33' E 120°21'0 0.0
2018-Feb-21 10:28N 22°33' E 120°21'0 0.0
2018-Feb-21 09:58N 22°33' E 120°21'0 0.1
2018-Feb-21 09:25N 22°33' E 120°21'0 0.0
2018-Feb-21 08:58N 22°33' E 120°21'0 0.0
2018-Feb-21 08:25N 22°33' E 120°21'0 0.0
2018-Feb-21 07:58N 22°33' E 120°21'0 0.1
2018-Feb-21 07:28N 22°33' E 120°21'0 0.0
2018-Feb-21 06:55N 22°33' E 120°21'0 0.1
2018-Feb-21 06:28N 22°33' E 120°21'0 0.0
2018-Feb-21 05:58N 22°33' E 120°21'0 0.0
2018-Feb-21 05:22N 22°33' E 120°21'0 0.0
2018-Feb-21 04:58N 22°33' E 120°21'0 0.0
2018-Feb-21 04:28N 22°33' E 120°21'0 0.0
2018-Feb-21 03:58N 22°33' E 120°21'0 0.0
2018-Feb-21 03:25N 22°33' E 120°21'0 0.1
2018-Feb-21 02:58N 22°33' E 120°21'0 0.1
2018-Feb-21 02:25N 22°33' E 120°21'0 0.1
2018-Feb-21 01:58N 22°33' E 120°21'0 0.1
2018-Feb-21 01:28N 22°33' E 120°21'0 0.0
2018-Feb-21 00:58N 22°33' E 120°21'0 0.0
2018-Feb-21 00:28N 22°33' E 120°21'0 0.1
2018-Feb-20 23:58N 22°33' E 120°21'0 0.1
2018-Feb-20 23:28N 22°33' E 120°21'0 0.0
2018-Feb-20 22:58N 22°33' E 120°21'0 0.0
2018-Feb-20 22:28N 22°33' E 120°21'0 0.0
2018-Feb-20 21:52N 22°33' E 120°21'0 0.0
2018-Feb-20 21:25N 22°33' E 120°21'0 0.0
2018-Feb-20 20:58N 22°33' E 120°21'0 0.1
2018-Feb-20 20:25N 22°33' E 120°21'0 0.1
2018-Feb-20 19:58N 22°33' E 120°21'0 0.0
2018-Feb-20 19:22N 22°33' E 120°21'0 0.1
2018-Feb-20 18:55N 22°33' E 120°21'0 0.1
2018-Feb-20 18:28N 22°33' E 120°21'0 0.0
2018-Feb-20 17:58N 22°33' E 120°21'0 0.0
2018-Feb-20 17:28N 22°33' E 120°21'0 0.0
2018-Feb-20 16:58N 22°33' E 120°21'0 0.0
2018-Feb-20 16:28N 22°33' E 120°21'0 0.0
2018-Feb-20 15:55N 22°33' E 120°21'0 0.0
2018-Feb-20 15:28N 22°33' E 120°21'0 0.1
2018-Feb-20 14:58N 22°33' E 120°21'0 0.1
2018-Feb-20 14:28N 22°33' E 120°21'0 0.0
2018-Feb-20 13:58N 22°33' E 120°21'0 0.0
2018-Feb-20 13:28N 22°33' E 120°21'0 0.0
2018-Feb-20 12:58N 22°33' E 120°21'0 0.0
2018-Feb-20 12:25N 22°33' E 120°21'0 0.1
2018-Feb-20 11:49N 22°33' E 120°21'0 0.2
2018-Feb-20 11:28N 22°33' E 120°21'0 0.1
2018-Feb-20 10:58N 22°33' E 120°21'0 0.1
2018-Feb-20 10:25N 22°33' E 120°21'0 0.0
2018-Feb-20 09:58N 22°33' E 120°21'0 0.0
2018-Feb-20 09:28N 22°33' E 120°21'0 0.0
2018-Feb-20 08:58N 22°33' E 120°21'0 0.0
2018-Feb-20 08:28N 22°33' E 120°21'0 0.0
2018-Feb-20 07:58N 22°33' E 120°21'0 0.0
2018-Feb-20 07:28N 22°33' E 120°21'0 0.0
2018-Feb-20 06:58N 22°33' E 120°21'0 0.0
2018-Feb-20 06:28N 22°33' E 120°21'0 0.0
2018-Feb-20 05:58N 22°33' E 120°21'0 0.0
2018-Feb-20 05:28N 22°33' E 120°21'0 0.0
2018-Feb-20 04:58N 22°33' E 120°21'0 0.0
2018-Feb-20 04:28N 22°33' E 120°21'0 0.0
2018-Feb-20 03:58N 22°33' E 120°21'0 0.0
2018-Feb-20 03:28N 22°33' E 120°21'0 0.0
2018-Feb-20 02:58N 22°33' E 120°21'0 0.0
2018-Feb-20 02:28N 22°33' E 120°21'0 0.0
2018-Feb-20 01:58N 22°33' E 120°21'0 0.0
2018-Feb-20 01:28N 22°33' E 120°21'0 0.1
2018-Feb-20 01:01N 22°33' E 120°21'1 1.8
2018-Feb-20 00:31N 22°33' E 120°20'4 8.2
2018-Feb-20 00:00N 22°32' E 120°15'3 6.8
2018-Feb-19 23:31N 22°31' E 120°12'4 8.4
2018-Feb-19 23:00N 22°35' E 120°10'611.8
2018-Feb-19 22:30N 22°41' E 120°08'611.9
2018-Feb-19 22:00N 22°46' E 120°05'612.2
2018-Feb-19 21:30N 22°52' E 120°02'613.0
2018-Feb-19 21:00N 22°58' E 119°60'714.0
2018-Feb-19 20:29N 23°04' E 119°56'814.1
2018-Feb-19 19:57N 23°12' E 119°56'713.8
2018-Feb-19 19:26N 23°19' E 119°57'613.3
2018-Feb-19 18:59N 23°25' E 119°57'712.9
2018-Feb-19 18:28N 23°32' E 119°57'612.2
2018-Feb-19 18:00N 23°37' E 119°58'5010.9
2018-Feb-19 13:27N 24°18' E 120°29'5 0.2
2018-Feb-18 16:17N 24°14' E 120°29'  
2018-Feb-14 10:10N 24°14' E 120°29'1 5.4
2018-Feb-14 10:00N 24°14' E 120°29'3 6.2
2018-Feb-14 09:30N 24°18' E 120°30'2 4.0
2018-Feb-14 08:59N 24°17' E 120°28'612.3
2018-Feb-14 08:30N 24°14' E 120°22'714.4
2018-Feb-14 08:00N 24°11' E 120°15'715.0
2018-Feb-14 07:30N 24°07' E 120°08'714.8
2018-Feb-14 07:00N 24°04' E 120°00'715.0
2018-Feb-14 06:30N 24°00' E 119°53'714.6
2018-Feb-14 06:00N 23°57' E 119°46'714.7
2018-Feb-14 05:30N 23°54' E 119°39'714.1
2018-Feb-14 05:00N 23°50' E 119°32'714.3
2018-Feb-14 04:30N 23°47' E 119°25'714.9
2018-Feb-14 04:00N 23°44' E 119°18'814.8
2018-Feb-14 03:30N 23°41' E 119°10'815.0
2018-Feb-14 03:00N 23°37' E 119°03'715.1
2018-Feb-14 02:30N 23°34' E 118°56'714.9
2018-Feb-14 02:00N 23°31' E 118°48'815.2
2018-Feb-14 01:30N 23°28' E 118°41'815.0
2018-Feb-14 01:00N 23°26' E 118°33'1015.4
2018-Feb-14 00:21N 23°22' E 118°23'815.3
2018-Feb-13 23:48N 23°20' E 118°14'514.8
2018-Feb-13 23:26N 23°18' E 118°08'614.4
2018-Feb-13 23:00N 23°16' E 118°02'714.2
2018-Feb-13 22:30N 23°13' E 117°55'1013.7
2018-Feb-13 21:48N 23°10' E 117°45'  

Dump ship's entire track history